Latest Weather Observations for Shepparton

IDV60801

Issued at 7:42 am EST Sunday 19 September 2021 (issued every 10 minutes, with the page automatically refreshed every 10 minutes)

About weather observations | Map of weather stations | Latest weather observations for VIC | Other Formats
Station Details ID: 081125 Name: SHEPPARTON AIRPORT Lat: -36.43 Lon: 145.39 Height: 113.9 m
Data from the previous 72 hours. | See also: Recent months at Shepparton
Date/Time
EST
Temp
°C
App
Temp
°C
Dew
Point
°C
Rel
Hum
%
Delta-T
°C
Wind Press
QNH
hPa
Press
MSL
hPa
Rain since
9am
mm
Dir  Spd
km/h
Gust
km/h
Spd
kts
Gust
kts
19/07:30am 9.1 6.6 8.0 93 0.5 NNW 11 15 6 8 1021.5 1021.5 0.0
19/07:00am 6.6 4.7 6.5 99 0.0 NNW 6 7 3 4 1021.6 1021.6 0.0
19/06:30am 5.1 3.2 4.8 98 0.1 NNW 4 7 2 4 1021.4 1021.4 0.0
19/06:00am 5.3 2.5 5.2 99 0.0 NNW 9 9 5 5 1021.1 1021.1 0.0
19/05:30am 3.7 0.6 3.6 99 0.0 NNW 9 11 5 6 1021.0 1021.0 0.0
19/05:00am 2.4 -0.6 2.3 99 0.0 NNW 7 7 4 4 1020.8 1020.8 0.0
19/04:30am 2.6 -0.3 2.5 99 0.0 NNW 7 9 4 5 1020.4 1020.4 0.0
19/04:00am 2.6 -0.4 2.3 98 0.1 NNW 7 9 4 5 1020.2 1020.2 0.0
19/03:30am 3.6 1.0 3.2 97 0.2 NNW 6 7 3 4 1020.2 1020.2 0.0
19/03:00am 3.5 1.6 2.6 94 0.4 NNW 2 6 1 3 1020.3 1020.3 0.0
19/02:30am 4.3 1.5 3.4 94 0.4 NNW 7 9 4 5 1020.6 1020.6 0.0
19/02:00am 4.9 2.3 4.2 95 0.3 NNW 7 9 4 5 1021.0 1021.0 0.0
19/01:30am 4.8 2.1 3.8 93 0.4 NNW 7 9 4 5 1021.4 1021.4 0.0
19/01:00am 5.1 2.9 3.6 90 0.6 NNW 4 6 2 3 1021.3 1021.3 0.0
19/12:30am 5.6 4.2 3.6 87 0.8 CALM 0 0 0 0 1021.1 1021.1 0.0
19/12:00am 6.4 3.4 4.1 85 1.0 WNW 9 11 5 6 1021.1 1021.1 0.0
 
Date/Time
EST
Temp
°C
App
Temp
°C
Dew
Point
°C
Rel
Hum
%
Delta-T
°C
Wind Press
QNH
hPa
Press
MSL
hPa
Rain since
9am
mm
Dir  Spd
km/h
Gust
km/h
Spd
kts
Gust
kts
18/11:30pm 7.3 4.4 4.4 82 1.3 WNW 9 11 5 6 1021.0 1021.0 0.0
18/11:00pm 8.2 4.9 4.6 78 1.6 WNW 11 15 6 8 1020.9 1020.9 0.0
18/10:30pm 9.1 5.1 5.1 76 1.8 WNW 15 20 8 11 1021.0 1021.0 0.0
18/10:00pm 9.1 5.6 5.3 77 1.7 WNW 13 19 7 10 1020.8 1020.8 0.0
18/09:30pm 8.9 5.7 5.3 78 1.6 NW 11 17 6 9 1020.6 1020.6 0.0
18/09:00pm 9.6 6.4 5.2 74 2.0 WNW 11 15 6 8 1020.3 1020.3 0.0
18/08:30pm 10.3 6.8 5.3 71 2.3 WNW 13 19 7 10 1020.1 1020.1 0.0
18/08:00pm 11.3 6.7 5.6 68 2.6 WNW 19 26 10 14 1019.7 1019.7 0.0
18/07:30pm 11.5 7.3 5.8 68 2.7 WNW 17 22 9 12 1019.1 1019.2 0.0
18/07:00pm 11.8 7.6 5.7 66 2.8 WNW 17 24 9 13 1018.6 1018.7 0.0
18/06:30pm 12.5 7.7 5.7 63 3.2 WNW 20 26 11 14 1018.3 1018.4 0.0
18/06:00pm 13.1 8.5 5.8 61 3.5 WNW 19 28 10 15 1017.8 1017.9 0.0
18/05:30pm 13.7 9.1 5.8 59 3.8 WNW 19 30 10 16 1017.4 1017.5 0.0
18/05:00pm 14.9 8.9 5.1 52 4.6 WNW 26 35 14 19 1017.0 1017.1 0.0
18/04:30pm 15.6 8.1 4.6 48 5.2 W 33 44 18 24 1016.6 1016.7 0.0
18/04:00pm 15.0 8.1 4.7 50 4.8 W 30 48 16 26 1016.4 1016.5 0.0
18/03:30pm 16.2 9.2 4.3 45 5.6 W 30 54 16 29 1016.1 1016.2 0.0
18/03:00pm 15.1 7.6 4.5 49 5.0 W 33 46 18 25 1015.9 1016.0 0.0
18/02:30pm 14.9 7.3 3.7 47 5.1 W 33 50 18 27 1015.8 1015.9 0.0
18/02:14pm 15.6 8.8 5.2 50 5.0 W 30 48 16 26 1015.5 1015.6 0.0
18/02:00pm 16.3 8.7 5.6 49 5.2 W 35 50 19 27 1015.5 1015.6 0.0
18/01:31pm 16.4 9.4 6.0 50 5.1 W 32 50 17 27 1015.5 1015.6 0.0
18/01:30pm 16.1 8.7 5.1 48 5.3 W 33 50 18 27 1015.5 1015.6 0.0
18/01:00pm 16.4 9.3 6.5 52 4.9 WNW 33 54 18 29 1015.5 1015.6 0.0
18/12:44pm 16.3 9.2 6.2 51 4.9 WNW 33 52 18 28 1015.7 1015.8 0.0
18/12:30pm 15.5 7.9 6.0 53 4.6 W 35 48 19 26 1015.8 1015.9 0.0
18/12:14pm 15.3 9.0 5.8 53 4.6 W 28 46 15 25 1015.7 1015.8 0.0
18/12:00pm 14.9 8.8 6.7 58 4.0 WNW 28 39 15 21 1015.9 1016.0 0.0
18/11:39am 15.2 9.1 6.5 56 4.2 W 28 46 15 25 1016.1 1016.2 0.0
18/11:30am 15.0 9.3 6.6 57 4.1 WNW 26 37 14 20 1016.1 1016.2 0.0
18/11:00am 13.9 8.7 7.4 65 3.2 W 24 35 13 19 1016.1 1016.2 0.0
18/10:30am 14.1 9.6 8.7 70 2.7 W 22 33 12 18 1016.1 1016.2 0.0
18/10:00am 13.1 7.7 7.8 70 2.6 W 26 39 14 21 1015.9 1016.0 0.0
18/09:30am 13.0 7.6 8.1 72 2.4 W 26 35 14 19 1015.5 1015.6 0.0
18/09:00am 12.5 8.4 8.8 78 1.9 W 20 32 11 17 1015.3 1015.4 2.4
18/08:30am 11.8 8.0 9.2 84 1.3 WNW 19 32 10 17 1015.2 1015.3 2.4
18/08:00am 11.4 8.3 9.0 85 1.2 NW 15 22 8 12 1015.0 1015.1 2.4
18/07:30am 10.9 7.5 9.3 90 0.8 NW 17 24 9 13 1014.7 1014.8 2.4
18/07:00am 10.0 7.4 9.4 96 0.3 NNW 13 17 7 9 1014.2 1014.2 2.4
18/06:30am 9.6 7.2 8.8 95 0.4 NW 11 15 6 8 1013.7 1013.7 2.4
18/06:00am 9.7 6.9 8.6 93 0.5 NNW 13 17 7 9 1013.2 1013.2 2.4
18/05:30am 10.7 8.0 9.1 90 0.8 WNW 13 19 7 10 1012.5 1012.5 2.4
18/05:00am 11.3 8.2 10.4 94 0.5 WNW 17 24 9 13 1012.3 1012.3 2.4
18/04:30am 10.9 9.5 9.7 92 0.6 WNW 7 11 4 6 1011.6 1011.6 2.4
18/04:00am 11.8 9.8 10.2 90 0.8 NW 11 17 6 9 1011.6 1011.6 2.4
18/03:30am 12.5 10.3 10.7 89 0.9 WNW 13 19 7 10 1011.5 1011.5 2.4
18/03:00am 13.1 10.7 11.3 89 1.0 WNW 15 20 8 11 1011.2 1011.2 2.4
18/02:30am 13.8 11.6 12.0 89 1.0 WNW 15 20 8 11 1011.1 1011.1 2.4
18/02:00am 14.7 12.2 12.2 85 1.4 NW 17 22 9 12 1011.2 1011.2 2.4
18/01:30am 14.7 12.5 12.2 85 1.4 NNW 15 20 8 11 1011.0 1011.0 2.4
18/01:00am 14.9 12.5 12.8 87 1.2 N 17 24 9 13 1011.4 1011.4 2.4
18/12:30am 14.7 11.7 12.7 88 1.1 N 20 28 11 15 1011.5 1011.5 2.4
18/12:00am 14.5 11.5 12.5 88 1.1 N 20 30 11 16 1011.5 1011.5 2.4
 
Date/Time
EST
Temp
°C
App
Temp
°C
Dew
Point
°C
Rel
Hum
%
Delta-T
°C
Wind Press
QNH
hPa
Press
MSL
hPa
Rain since
9am
mm
Dir  Spd
km/h
Gust
km/h
Spd
kts
Gust
kts
17/11:30pm 14.6 10.9 12.6 88 1.1 N 24 33 13 18 1011.6 1011.6 2.4
17/11:00pm 14.2 10.6 12.9 92 0.7 N 24 37 13 20 1011.8 1011.8 2.4
17/10:30pm 13.9 10.4 13.3 96 0.3 N 24 32 13 17 1012.1 1012.1 2.4
17/10:00pm 13.9 10.9 13.6 98 0.2 N 22 33 12 18 1012.4 1012.4 2.2
17/09:30pm 14.0 11.5 13.5 97 0.3 NNE 19 30 10 16 1012.1 1012.1 1.8
17/09:00pm 14.1 11.5 13.3 95 0.4 NNE 19 26 10 14 1011.9 1011.9 1.6
17/08:30pm 14.4 10.7 12.6 89 1.0 NNE 24 44 13 24 1011.6 1011.6 1.2
17/08:00pm 15.2 11.3 12.2 82 1.6 NNE 24 35 13 19 1011.5 1011.5 1.2
17/07:30pm 14.7 11.4 12.7 88 1.1 NNE 22 28 12 15 1012.3 1012.3 1.2
17/07:00pm 14.8 12.0 12.7 87 1.2 NNE 19 28 10 15 1012.0 1012.0 0.6
17/06:30pm 14.7 11.7 12.4 86 1.3 NE 20 30 11 16 1012.0 1012.0 0.4
17/06:00pm 15.2 12.6 12.0 81 1.7 NE 17 24 9 13 1011.8 1011.8 0.4
17/05:30pm 16.1 13.5 12.1 77 2.2 NE 17 26 9 14 1011.4 1011.4 0.0
17/05:00pm 16.2 13.7 12.4 78 2.1 NE 17 26 9 14 1011.1 1011.1 0.0
17/04:30pm 16.5 13.4 12.3 76 2.3 NE 20 28 11 15 1012.0 1012.0 0.0
17/04:00pm 17.5 13.7 11.3 67 3.4 NE 22 35 12 19 1011.9 1011.9 0.0
17/03:30pm 17.7 13.2 11.3 66 3.5 NE 26 37 14 20 1011.6 1011.6 0.0
17/03:00pm 17.8 13.2 11.1 65 3.6 NE 26 39 14 21 1012.1 1012.1 0.0
17/02:30pm 17.4 13.9 11.0 66 3.5 NE 20 30 11 16 1012.8 1012.8 0.0
17/02:00pm 16.9 12.2 10.5 66 3.4 NE 26 35 14 19 1013.6 1013.6 0.0
17/01:30pm 16.7 11.8 10.1 65 3.5 NE 26 37 14 20 1014.0 1014.0 0.0
17/01:00pm 17.1 12.6 10.0 63 3.8 NNE 24 35 13 19 1015.4 1015.5 0.0
17/12:30pm 16.6 12.5 10.0 65 3.5 NNE 22 33 12 18 1015.5 1015.6 0.0
17/12:00pm 16.3 11.3 9.5 64 3.6 NE 26 39 14 21 1015.4 1015.5 0.0
17/11:30am 16.3 10.7 8.8 61 3.9 NE 28 37 15 20 1015.7 1015.8 0.0
17/11:00am 15.3 10.1 9.0 66 3.2 NE 26 39 14 21 1015.4 1015.5 0.0
17/10:30am 15.2 10.8 9.1 67 3.1 NE 22 32 12 17 1016.9 1017.0 0.0
17/10:00am 14.8 10.3 8.7 67 3.1 NNE 22 33 12 18 1018.0 1018.1 0.0
17/09:30am 13.7 9.0 7.9 68 2.9 NNE 22 30 12 16 1018.7 1018.8 0.0
17/09:00am 12.4 7.7 7.9 74 2.2 NNE 22 32 12 17 1018.5 1018.6 0.0
17/08:30am 11.2 6.3 7.1 76 2.0 NE 22 32 12 17 1018.1 1018.2 0.0
17/08:00am 10.5 6.3 7.4 81 1.5 NE 19 30 10 16 1018.1 1018.2 0.0
17/07:30am 8.7 5.7 7.6 93 0.5 NE 13 19 7 10 1018.3 1018.4 0.0
17/07:00am 7.0 3.8 6.9 99 0.0 E 13 20 7 11 1017.7 1017.8 0.0
17/06:30am 4.1 1.1 4.0 99 0.0 E 9 11 5 6 1017.6 1017.7 0.0
17/06:00am 3.7 1.0 3.6 99 0.0 E 7 9 4 5 1017.9 1018.0 0.0
17/05:30am 3.5 0.9 3.4 99 0.0 E 6 7 3 4 1017.9 1018.0 0.0
17/05:00am 3.8 2.4 3.7 99 0.0 CALM 0 0 0 0 1017.7 1017.8 0.0
17/04:30am 3.4 2.0 3.3 99 0.0 CALM 0 0 0 0 1017.6 1017.7 0.0
17/04:00am 4.1 1.5 4.0 99 0.0 E 7 9 4 5 1017.8 1017.9 0.0
17/03:30am 3.0 1.5 2.9 99 0.0 CALM 0 0 0 0 1018.3 1018.4 0.0
17/03:00am 3.6 1.1 3.5 99 0.0 E 6 7 3 4 1018.6 1018.7 0.0
17/02:30am 3.5 2.1 3.4 99 0.0 CALM 0 0 0 0 1019.1 1019.2 0.0
17/02:00am 3.5 2.1 3.4 99 0.0 CALM 0 0 0 0 1019.5 1019.5 0.0
17/01:30am 3.9 2.5 3.6 98 0.1 CALM 0 0 0 0 1019.7 1019.7 0.0
17/01:00am 4.2 2.8 3.8 97 0.2 CALM 0 0 0 0 1019.9 1019.9 0.0
17/12:30am 4.6 3.3 4.2 97 0.2 CALM 0 0 0 0 1019.9 1019.9 0.0
17/12:00am 5.0 2.7 4.6 97 0.2 E 6 7 3 4 1020.1 1020.1 0.0
 
Date/Time
EST
Temp
°C
App
Temp
°C
Dew
Point
°C
Rel
Hum
%
Delta-T
°C
Wind Press
QNH
hPa
Press
MSL
hPa
Rain since
9am
mm
Dir  Spd
km/h
Gust
km/h
Spd
kts
Gust
kts
16/11:30pm 4.8 3.5 4.1 95 0.3 CALM 0 0 0 0 1020.1 1020.1 0.0
16/11:00pm 5.3 4.1 4.4 94 0.4 CALM 0 0 0 0 1020.2 1020.2 0.0
16/10:30pm 6.4 5.4 5.5 94 0.4 CALM 0 2 0 1 1020.4 1020.4 0.0
16/10:00pm 6.6 3.9 5.7 94 0.4 E 9 11 5 6 1020.4 1020.4 0.0
16/09:30pm 6.6 4.5 5.6 93 0.4 ENE 6 9 3 5 1020.7 1020.7 0.0
16/09:00pm 6.2 5.0 4.7 90 0.7 CALM 0 0 0 0 1021.1 1021.1 0.0
16/08:30pm 7.6 6.7 5.9 89 0.8 CALM 0 0 0 0 1021.1 1021.1 0.0
16/08:00pm 7.8 5.6 5.3 84 1.1 ENE 6 7 3 4 1020.7 1020.7 0.0
16/07:30pm 8.9 7.9 5.6 80 1.5 CALM 0 0 0 0 1020.6 1020.6 0.0
16/07:00pm 9.6 8.6 5.4 75 1.9 CALM 0 6 0 3 1020.2 1020.2 0.0
16/06:30pm 11.4 10.3 5.1 65 2.9 CALM 0 6 0 3 1020.1 1020.1 0.0
16/06:00pm 13.2 10.8 5.4 59 3.7 ENE 7 9 4 5 1019.8 1019.8 0.0
16/05:30pm 14.4 11.7 5.7 56 4.2 ENE 9 11 5 6 1019.8 1019.8 0.0
16/05:00pm 15.1 12.1 5.9 54 4.4 E 11 17 6 9 1019.7 1019.7 0.0
16/04:30pm 14.4 11.7 5.5 55 4.2 ENE 9 11 5 6 1020.0 1020.0 0.0
16/04:00pm 14.6 10.6 5.1 53 4.5 NE 15 20 8 11 1020.2 1020.2 0.0
16/03:30pm 14.3 11.2 5.4 55 4.2 N 11 15 6 8 1020.4 1020.4 0.0
16/03:00pm 14.4 11.4 6.0 57 4.0 N 11 13 6 7 1020.8 1020.8 0.0
16/02:30pm 14.8 12.2 6.1 56 4.2 N 9 11 5 6 1021.0 1021.0 0.0
16/02:00pm 15.1 11.8 6.4 56 4.2 N 13 20 7 11 1021.3 1021.3 0.0
16/01:30pm 15.6 13.9 5.8 52 4.7 NE 4 11 2 6 1021.5 1021.5 0.0
16/01:00pm 16.7 13.6 7.4 54 4.7 ENE 13 20 7 11 1021.6 1021.6 0.0
16/12:30pm 16.6 14.0 7.8 56 4.5 E 11 15 6 8 1022.3 1022.4 0.0
16/12:00pm 14.6 11.5 5.7 55 4.2 NE 11 20 6 11 1022.5 1022.6 0.0
16/11:30am 15.3 13.0 7.3 59 4.0 NE 9 15 5 8 1023.1 1023.2 0.0
16/11:00am 14.8 11.7 7.4 61 3.7 NE 13 20 7 11 1023.5 1023.6 0.0
16/10:30am 14.5 12.4 8.2 66 3.2 NE 9 20 5 11 1023.8 1023.9 0.0
16/10:00am 13.1 10.4 7.3 68 2.8 NE 11 17 6 9 1024.0 1024.1 0.0
16/09:30am 11.9 9.3 7.6 75 2.1 NNE 11 17 6 9 1024.3 1024.4 0.0
16/09:00am 10.3 9.4 9.1 92 0.6 S 4 7 2 4 1024.4 1024.5 0.0
16/08:30am 9.2 7.9 9.1 99 0.0 S 6 9 3 5 1024.5 1024.6 0.0
16/08:00am 6.8 4.9 6.8 100 0.0 S 6 7 3 4 1024.4 1024.5 0.0

Other formats

Comma delimited format used in spreadsheet applications
http://www.bom.gov.au/fwo/IDV60801/IDV60801.94875.axf

JavaScript Object Notation format (JSON) in row-major order
http://www.bom.gov.au/fwo/IDV60801/IDV60801.94875.json

Data quality

Most of these data are generated automatically and are frequently updated. Quality checks on data are not normally performed. It is possible for incorrect values to appear. Refer to information at About Latest Weather Observations and please check the disclaimer before using these data.